MV Causeway Supplier — ZR2426 — position and weather

sailwx.info

Track history (hours):
 
Tides and Currents Weather Stations Pressure Air Temp Water Temp Dewpoint Dewpoint Depression Visibility Wind Speed Wind Dir Waves Ship Positions

MV Causeway Supplier

Last reported at 2015-Sep-02 05:32 UTC. Time now 2015-Sep-02 06:27 UTC.
Position S 29°54' E 031°00'.

Length 22 m; draft 2.7 m.

Type: . MMSI: 601041200.

Date/timePositionNaut miles runAvg speedWind from/ knotsBaromVisibWave heightAir tempDewpointWater temp
2015-Sep-02 05:32S 29°54' E 031°00'1 0.0
2015-Sep-01 11:33S 29°53' E 031°00'6 6.3
2015-Sep-01 10:33S 29°50' E 031°07'6 6.2
2015-Sep-01 09:33S 29°46' E 031°12'0 0.0
2015-Sep-01 08:34S 29°46' E 031°12'6 6.5
2015-Sep-01 07:33S 29°50' E 031°06'7 6.5
2015-Sep-01 06:33S 29°54' E 031°00'0 0.0
2015-Sep-01 05:33S 29°54' E 031°00'0 0.0
2015-Sep-01 04:33S 29°54' E 031°00'0 0.0
2015-Aug-31 10:33S 29°54' E 031°00'0 0.0
2015-Aug-31 09:33S 29°54' E 031°00'0 0.0
2015-Aug-31 08:33S 29°54' E 031°00'0 0.0
2015-Aug-31 07:33S 29°54' E 031°00'0 0.0
2015-Aug-31 06:33S 29°54' E 031°00'1 0.1
2015-Aug-30 09:33S 29°53' E 031°00'7 6.7
2015-Aug-30 08:33S 29°51' E 031°08'3 2.9
2015-Aug-30 07:33S 29°51' E 031°11'2 2.2
2015-Aug-30 06:33S 29°53' E 031°10'8 7.7
2015-Aug-30 05:33S 29°52' E 031°01'2 1.8
2015-Aug-30 04:33S 29°54' E 031°00'0 0.0
2015-Aug-28 10:22S 29°54' E 031°00'0 0.0
2015-Aug-28 09:33S 29°54' E 031°00'0 0.0
2015-Aug-28 08:33S 29°54' E 031°00'0 0.0
2015-Aug-28 07:33S 29°54' E 031°00'0 0.0
2015-Aug-28 06:33S 29°54' E 031°00'0 0.0
2015-Aug-28 05:33S 29°54' E 031°00'0 0.0
2015-Aug-26 18:33S 29°54' E 031°00'4 3.9
2015-Aug-26 17:33S 29°52' E 031°04'7 6.7
2015-Aug-26 16:28S 29°56' E 031°11'2 2.2
2015-Aug-26 15:33S 29°54' E 031°10'2 1.9
2015-Aug-26 14:33S 29°52' E 031°09'5 4.8
2015-Aug-26 13:34S 29°52' E 031°04'2 2.4
2015-Aug-26 12:33S 29°52' E 031°01'0 0.0
2015-Aug-26 11:33S 29°52' E 031°01'2 2.0
2015-Aug-26 10:33S 29°54' E 031°00'0 0.0
2015-Aug-26 09:33S 29°54' E 031°00'0 0.0
2015-Aug-26 08:33S 29°54' E 031°00'0 0.0
2015-Aug-26 07:33S 29°54' E 031°00'0 0.0
2015-Aug-26 06:33S 29°54' E 031°00'0 0.0
2015-Aug-25 12:05S 29°54' E 031°00'1 1.5
2015-Aug-25 11:33S 29°53' E 031°00'7 6.7
2015-Aug-25 10:33S 29°54' E 031°08'1 0.9
2015-Aug-25 09:33S 29°53' E 031°09'7 7.3
2015-Aug-25 08:33S 29°52' E 031°01'0 0.0
2015-Aug-25 06:33S 29°52' E 031°01'2 2.0
2015-Aug-25 05:33S 29°54' E 031°00'1 0.1
2015-Aug-24 14:33S 29°53' E 031°00'6 5.9
2015-Aug-24 13:33S 29°51' E 031°07'1 1.3
2015-Aug-24 12:33S 29°52' E 031°08'3 3.3
2015-Aug-24 11:33S 29°52' E 031°05'3 3.3
2015-Aug-24 10:33S 29°52' E 031°01'0 0.0
2015-Aug-24 09:33S 29°52' E 031°01'2 2.0
2015-Aug-24 08:33S 29°54' E 031°00'0 0.0
2015-Aug-24 07:33S 29°54' E 031°00'0 0.0
2015-Aug-24 06:33S 29°54' E 031°00'0 0.0
2015-Aug-24 05:33S 29°54' E 031°00'0 0.0
2015-Aug-23 13:33S 29°54' E 031°00'0 0.0
2015-Aug-23 12:33S 29°54' E 031°00'0 0.0
2015-Aug-23 11:33S 29°54' E 031°00'0 0.0
2015-Aug-23 10:33S 29°54' E 031°00'0 0.0
2015-Aug-23 09:33S 29°54' E 031°00'0 0.0
2015-Aug-23 08:33S 29°54' E 031°00'0 0.0
2015-Aug-23 07:33S 29°54' E 031°00'0 0.0
2015-Aug-23 06:33S 29°54' E 031°00'0 0.0
2015-Aug-23 05:33S 29°54' E 031°00'  
Track history (hours):
 
Tides and Currents Weather Stations Pressure Air Temp Water Temp Dewpoint Dewpoint Depression Visibility Wind Speed Wind Dir Waves Ship Positions

MV Causeway Supplier

Last reported at 2015-Sep-02 05:32 UTC. Time now 2015-Sep-02 06:27 UTC.
Position S 29°54' E 031°00'.

Length 22 m; draft 2.7 m.

Type: . MMSI: 601041200.

Date/timePositionNaut miles runAvg speedWind from/ knotsBaromVisibWave heightAir tempDewpointWater temp
2015-Sep-02 05:32S 29°54' E 031°00'1 0.0
2015-Sep-01 11:33S 29°53' E 031°00'6 6.3
2015-Sep-01 10:33S 29°50' E 031°07'6 6.2
2015-Sep-01 09:33S 29°46' E 031°12'0 0.0
2015-Sep-01 08:34S 29°46' E 031°12'6 6.5
2015-Sep-01 07:33S 29°50' E 031°06'7 6.5
2015-Sep-01 06:33S 29°54' E 031°00'0 0.0
2015-Sep-01 05:33S 29°54' E 031°00'0 0.0
2015-Sep-01 04:33S 29°54' E 031°00'0 0.0
2015-Aug-31 10:33S 29°54' E 031°00'0 0.0
2015-Aug-31 09:33S 29°54' E 031°00'0 0.0
2015-Aug-31 08:33S 29°54' E 031°00'0 0.0
2015-Aug-31 07:33S 29°54' E 031°00'0 0.0
2015-Aug-31 06:33S 29°54' E 031°00'1 0.1
2015-Aug-30 09:33S 29°53' E 031°00'7 6.7
2015-Aug-30 08:33S 29°51' E 031°08'3 2.9
2015-Aug-30 07:33S 29°51' E 031°11'2 2.2
2015-Aug-30 06:33S 29°53' E 031°10'8 7.7
2015-Aug-30 05:33S 29°52' E 031°01'2 1.8
2015-Aug-30 04:33S 29°54' E 031°00'0 0.0
2015-Aug-28 10:22S 29°54' E 031°00'0 0.0
2015-Aug-28 09:33S 29°54' E 031°00'0 0.0
2015-Aug-28 08:33S 29°54' E 031°00'0 0.0
2015-Aug-28 07:33S 29°54' E 031°00'0 0.0
2015-Aug-28 06:33S 29°54' E 031°00'0 0.0
2015-Aug-28 05:33S 29°54' E 031°00'0 0.0
2015-Aug-26 18:33S 29°54' E 031°00'4 3.9
2015-Aug-26 17:33S 29°52' E 031°04'7 6.7
2015-Aug-26 16:28S 29°56' E 031°11'2 2.2
2015-Aug-26 15:33S 29°54' E 031°10'2 1.9
2015-Aug-26 14:33S 29°52' E 031°09'5 4.8
2015-Aug-26 13:34S 29°52' E 031°04'2 2.4
2015-Aug-26 12:33S 29°52' E 031°01'0 0.0
2015-Aug-26 11:33S 29°52' E 031°01'2 2.0
2015-Aug-26 10:33S 29°54' E 031°00'0 0.0
2015-Aug-26 09:33S 29°54' E 031°00'0 0.0
2015-Aug-26 08:33S 29°54' E 031°00'0 0.0
2015-Aug-26 07:33S 29°54' E 031°00'0 0.0
2015-Aug-26 06:33S 29°54' E 031°00'0 0.0
2015-Aug-25 12:05S 29°54' E 031°00'1 1.5
2015-Aug-25 11:33S 29°53' E 031°00'7 6.7
2015-Aug-25 10:33S 29°54' E 031°08'1 0.9
2015-Aug-25 09:33S 29°53' E 031°09'7 7.3
2015-Aug-25 08:33S 29°52' E 031°01'0 0.0
2015-Aug-25 06:33S 29°52' E 031°01'2 2.0
2015-Aug-25 05:33S 29°54' E 031°00'1 0.1
2015-Aug-24 14:33S 29°53' E 031°00'6 5.9
2015-Aug-24 13:33S 29°51' E 031°07'1 1.3
2015-Aug-24 12:33S 29°52' E 031°08'3 3.3
2015-Aug-24 11:33S 29°52' E 031°05'3 3.3
2015-Aug-24 10:33S 29°52' E 031°01'0 0.0
2015-Aug-24 09:33S 29°52' E 031°01'2 2.0
2015-Aug-24 08:33S 29°54' E 031°00'0 0.0
2015-Aug-24 07:33S 29°54' E 031°00'0 0.0
2015-Aug-24 06:33S 29°54' E 031°00'0 0.0
2015-Aug-24 05:33S 29°54' E 031°00'0 0.0
2015-Aug-23 13:33S 29°54' E 031°00'0 0.0
2015-Aug-23 12:33S 29°54' E 031°00'0 0.0
2015-Aug-23 11:33S 29°54' E 031°00'0 0.0
2015-Aug-23 10:33S 29°54' E 031°00'0 0.0
2015-Aug-23 09:33S 29°54' E 031°00'0 0.0
2015-Aug-23 08:33S 29°54' E 031°00'0 0.0
2015-Aug-23 07:33S 29°54' E 031°00'0 0.0
2015-Aug-23 06:33S 29°54' E 031°00'0 0.0
2015-Aug-23 05:33S 29°54' E 031°00'  

Dump ship's entire track history